sensor_id;sensor_type;location;lat;lon;timestamp;P1;durP1;ratioP1;P2;durP2;ratioP2
2674;SDS011;1347;42.122;24.746;2023-09-18T00:01:55;7.73;;;5.73;;
2674;SDS011;1347;42.122;24.746;2023-09-18T00:04:22;6.50;;;5.33;;
2674;SDS011;1347;42.122;24.746;2023-09-18T00:06:49;6.17;;;5.57;;
2674;SDS011;1347;42.122;24.746;2023-09-18T00:09:16;14.03;;;6.67;;
2674;SDS011;1347;42.122;24.746;2023-09-18T00:11:44;13.77;;;5.90;;
2674;SDS011;1347;42.122;24.746;2023-09-18T00:14:12;10.47;;;5.50;;
2674;SDS011;1347;42.122;24.746;2023-09-18T00:16:39;5.87;;;4.80;;
2674;SDS011;1347;42.122;24.746;2023-09-18T00:19:06;6.87;;;5.10;;
2674;SDS011;1347;42.122;24.746;2023-09-18T00:21:32;9.97;;;5.80;;
2674;SDS011;1347;42.122;24.746;2023-09-18T00:24:00;6.93;;;5.50;;
2674;SDS011;1347;42.122;24.746;2023-09-18T00:26:26;10.97;;;5.53;;
2674;SDS011;1347;42.122;24.746;2023-09-18T00:28:55;6.83;;;5.30;;
2674;SDS011;1347;42.122;24.746;2023-09-18T00:31:22;8.73;;;5.50;;
2674;SDS011;1347;42.122;24.746;2023-09-18T00:33:48;6.10;;;5.30;;
2674;SDS011;1347;42.122;24.746;2023-09-18T00:36:15;5.70;;;4.83;;
2674;SDS011;1347;42.122;24.746;2023-09-18T00:38:42;8.90;;;5.30;;
2674;SDS011;1347;42.122;24.746;2023-09-18T00:41:09;7.30;;;5.30;;
2674;SDS011;1347;42.122;24.746;2023-09-18T00:43:36;12.17;;;5.07;;
2674;SDS011;1347;42.122;24.746;2023-09-18T00:46:04;10.90;;;4.50;;
2674;SDS011;1347;42.122;24.746;2023-09-18T00:48:31;19.47;;;5.40;;
2674;SDS011;1347;42.122;24.746;2023-09-18T00:50:58;7.80;;;5.33;;
2674;SDS011;1347;42.122;24.746;2023-09-18T00:53:25;7.80;;;5.37;;
2674;SDS011;1347;42.122;24.746;2023-09-18T00:55:53;5.63;;;5.03;;
2674;SDS011;1347;42.122;24.746;2023-09-18T00:58:22;7.43;;;5.00;;
2674;SDS011;1347;42.122;24.746;2023-09-18T01:00:50;7.70;;;5.40;;
2674;SDS011;1347;42.122;24.746;2023-09-18T01:03:18;9.17;;;5.80;;
2674;SDS011;1347;42.122;24.746;2023-09-18T01:05:46;8.00;;;5.20;;
2674;SDS011;1347;42.122;24.746;2023-09-18T01:08:13;11.83;;;5.47;;
2674;SDS011;1347;42.122;24.746;2023-09-18T01:10:48;6.20;;;5.60;;
2674;SDS011;1347;42.122;24.746;2023-09-18T01:13:27;9.70;;;5.20;;
2674;SDS011;1347;42.122;24.746;2023-09-18T01:15:57;8.90;;;5.00;;
2674;SDS011;1347;42.122;24.746;2023-09-18T01:18:30;6.40;;;5.30;;
2674;SDS011;1347;42.122;24.746;2023-09-18T01:20:57;5.47;;;4.87;;
2674;SDS011;1347;42.122;24.746;2023-09-18T01:23:25;6.80;;;4.60;;
2674;SDS011;1347;42.122;24.746;2023-09-18T01:25:52;6.40;;;4.97;;
2674;SDS011;1347;42.122;24.746;2023-09-18T01:28:19;6.20;;;4.73;;
2674;SDS011;1347;42.122;24.746;2023-09-18T01:30:46;5.33;;;4.83;;
2674;SDS011;1347;42.122;24.746;2023-09-18T01:33:13;8.13;;;5.40;;
2674;SDS011;1347;42.122;24.746;2023-09-18T01:35:41;5.90;;;4.60;;
2674;SDS011;1347;42.122;24.746;2023-09-18T01:38:08;8.43;;;5.00;;
2674;SDS011;1347;42.122;24.746;2023-09-18T01:40:37;5.07;;;4.57;;
2674;SDS011;1347;42.122;24.746;2023-09-18T01:43:05;7.60;;;5.30;;
2674;SDS011;1347;42.122;24.746;2023-09-18T01:45:32;7.10;;;4.87;;
2674;SDS011;1347;42.122;24.746;2023-09-18T01:47:59;6.83;;;5.30;;
2674;SDS011;1347;42.122;24.746;2023-09-18T01:50:26;9.40;;;5.30;;
2674;SDS011;1347;42.122;24.746;2023-09-18T01:52:53;7.23;;;4.90;;
2674;SDS011;1347;42.122;24.746;2023-09-18T01:55:20;6.47;;;4.53;;
2674;SDS011;1347;42.122;24.746;2023-09-18T01:57:48;6.63;;;5.20;;
2674;SDS011;1347;42.122;24.746;2023-09-18T02:00:15;7.70;;;5.33;;
2674;SDS011;1347;42.122;24.746;2023-09-18T02:02:43;10.40;;;5.30;;
2674;SDS011;1347;42.122;24.746;2023-09-18T02:05:10;7.83;;;5.00;;
2674;SDS011;1347;42.122;24.746;2023-09-18T02:07:37;5.80;;;4.93;;
2674;SDS011;1347;42.122;24.746;2023-09-18T02:10:04;5.80;;;4.90;;
2674;SDS011;1347;42.122;24.746;2023-09-18T02:12:32;6.07;;;5.07;;
2674;SDS011;1347;42.122;24.746;2023-09-18T02:15:00;8.10;;;5.63;;
2674;SDS011;1347;42.122;24.746;2023-09-18T02:17:31;7.50;;;5.40;;
2674;SDS011;1347;42.122;24.746;2023-09-18T02:19:58;6.23;;;4.97;;
2674;SDS011;1347;42.122;24.746;2023-09-18T02:22:31;9.13;;;4.90;;
2674;SDS011;1347;42.122;24.746;2023-09-18T02:24:58;6.80;;;4.70;;
2674;SDS011;1347;42.122;24.746;2023-09-18T02:27:26;7.73;;;4.57;;
2674;SDS011;1347;42.122;24.746;2023-09-18T02:29:53;7.37;;;4.83;;
2674;SDS011;1347;42.122;24.746;2023-09-18T02:32:21;6.43;;;4.67;;
2674;SDS011;1347;42.122;24.746;2023-09-18T02:34:48;5.20;;;4.70;;
2674;SDS011;1347;42.122;24.746;2023-09-18T02:37:15;7.67;;;5.47;;
2674;SDS011;1347;42.122;24.746;2023-09-18T02:39:42;6.50;;;4.77;;
2674;SDS011;1347;42.122;24.746;2023-09-18T02:42:09;6.30;;;5.23;;
2674;SDS011;1347;42.122;24.746;2023-09-18T02:44:36;12.07;;;5.37;;
2674;SDS011;1347;42.122;24.746;2023-09-18T02:47:03;5.87;;;5.27;;
2674;SDS011;1347;42.122;24.746;2023-09-18T02:49:31;10.70;;;5.63;;
2674;SDS011;1347;42.122;24.746;2023-09-18T02:51:58;6.13;;;5.53;;
2674;SDS011;1347;42.122;24.746;2023-09-18T02:54:25;6.20;;;5.00;;
2674;SDS011;1347;42.122;24.746;2023-09-18T02:56:52;8.93;;;5.47;;
2674;SDS011;1347;42.122;24.746;2023-09-18T02:59:19;8.93;;;4.97;;
2674;SDS011;1347;42.122;24.746;2023-09-18T03:01:46;8.67;;;5.67;;
2674;SDS011;1347;42.122;24.746;2023-09-18T03:04:12;10.10;;;6.80;;
2674;SDS011;1347;42.122;24.746;2023-09-18T03:06:41;11.33;;;5.67;;
2674;SDS011;1347;42.122;24.746;2023-09-18T03:09:08;7.73;;;5.50;;
2674;SDS011;1347;42.122;24.746;2023-09-18T03:11:34;8.70;;;5.27;;
2674;SDS011;1347;42.122;24.746;2023-09-18T03:14:01;7.07;;;5.00;;
2674;SDS011;1347;42.122;24.746;2023-09-18T03:16:28;5.60;;;5.00;;
2674;SDS011;1347;42.122;24.746;2023-09-18T03:18:58;8.83;;;4.83;;
2674;SDS011;1347;42.122;24.746;2023-09-18T03:21:25;9.03;;;5.77;;
2674;SDS011;1347;42.122;24.746;2023-09-18T03:23:53;6.63;;;4.27;;
2674;SDS011;1347;42.122;24.746;2023-09-18T03:26:20;6.20;;;5.27;;
2674;SDS011;1347;42.122;24.746;2023-09-18T03:28:47;5.77;;;4.83;;
2674;SDS011;1347;42.122;24.746;2023-09-18T03:31:13;8.13;;;4.80;;
2674;SDS011;1347;42.122;24.746;2023-09-18T03:33:40;7.40;;;5.80;;
2674;SDS011;1347;42.122;24.746;2023-09-18T03:36:07;9.37;;;6.87;;
2674;SDS011;1347;42.122;24.746;2023-09-18T03:38:36;10.30;;;6.93;;
2674;SDS011;1347;42.122;24.746;2023-09-18T03:41:05;10.63;;;7.27;;
2674;SDS011;1347;42.122;24.746;2023-09-18T03:43:32;8.63;;;6.70;;
2674;SDS011;1347;42.122;24.746;2023-09-18T03:46:07;7.47;;;5.77;;
2674;SDS011;1347;42.122;24.746;2023-09-18T03:48:34;5.67;;;5.07;;
2674;SDS011;1347;42.122;24.746;2023-09-18T03:51:02;9.03;;;5.77;;
2674;SDS011;1347;42.122;24.746;2023-09-18T03:53:30;7.30;;;4.83;;
2674;SDS011;1347;42.122;24.746;2023-09-18T03:55:58;6.80;;;5.70;;
2674;SDS011;1347;42.122;24.746;2023-09-18T03:58:26;7.50;;;6.30;;
2674;SDS011;1347;42.122;24.746;2023-09-18T04:00:53;8.17;;;6.40;;
2674;SDS011;1347;42.122;24.746;2023-09-18T04:03:20;6.40;;;5.70;;
2674;SDS011;1347;42.122;24.746;2023-09-18T04:05:47;6.70;;;5.93;;
2674;SDS011;1347;42.122;24.746;2023-09-18T04:08:14;8.67;;;5.93;;
2674;SDS011;1347;42.122;24.746;2023-09-18T04:10:41;10.23;;;5.40;;
2674;SDS011;1347;42.122;24.746;2023-09-18T04:13:09;7.33;;;5.40;;
2674;SDS011;1347;42.122;24.746;2023-09-18T04:15:37;12.33;;;6.60;;
2674;SDS011;1347;42.122;24.746;2023-09-18T04:18:04;10.03;;;7.13;;
2674;SDS011;1347;42.122;24.746;2023-09-18T04:20:31;9.37;;;6.20;;
2674;SDS011;1347;42.122;24.746;2023-09-18T04:23:17;8.63;;;6.67;;
2674;SDS011;1347;42.122;24.746;2023-09-18T04:25:46;13.70;;;7.23;;
2674;SDS011;1347;42.122;24.746;2023-09-18T04:28:13;11.53;;;7.33;;
2674;SDS011;1347;42.122;24.746;2023-09-18T04:30:42;13.50;;;8.00;;
2674;SDS011;1347;42.122;24.746;2023-09-18T04:33:08;11.43;;;8.40;;
2674;SDS011;1347;42.122;24.746;2023-09-18T04:35:37;12.77;;;8.30;;
2674;SDS011;1347;42.122;24.746;2023-09-18T04:38:05;15.37;;;7.40;;
2674;SDS011;1347;42.122;24.746;2023-09-18T04:40:33;12.37;;;9.30;;
2674;SDS011;1347;42.122;24.746;2023-09-18T04:43:00;17.33;;;6.87;;
2674;SDS011;1347;42.122;24.746;2023-09-18T04:45:29;11.90;;;7.00;;
2674;SDS011;1347;42.122;24.746;2023-09-18T04:47:58;14.60;;;7.97;;
2674;SDS011;1347;42.122;24.746;2023-09-18T04:50:25;10.87;;;8.10;;
2674;SDS011;1347;42.122;24.746;2023-09-18T04:52:52;21.40;;;14.37;;
2674;SDS011;1347;42.122;24.746;2023-09-18T04:55:21;12.67;;;10.57;;
2674;SDS011;1347;42.122;24.746;2023-09-18T04:57:48;11.80;;;8.40;;
2674;SDS011;1347;42.122;24.746;2023-09-18T05:00:15;13.60;;;9.67;;
2674;SDS011;1347;42.122;24.746;2023-09-18T05:02:42;14.40;;;8.50;;
2674;SDS011;1347;42.122;24.746;2023-09-18T05:05:11;15.20;;;8.73;;
2674;SDS011;1347;42.122;24.746;2023-09-18T05:07:39;13.07;;;8.90;;
2674;SDS011;1347;42.122;24.746;2023-09-18T05:10:06;23.00;;;14.80;;
2674;SDS011;1347;42.122;24.746;2023-09-18T05:12:33;13.70;;;7.90;;
2674;SDS011;1347;42.122;24.746;2023-09-18T05:15:00;11.80;;;7.40;;
2674;SDS011;1347;42.122;24.746;2023-09-18T05:20:16;7.93;;;4.43;;
2674;SDS011;1347;42.122;24.746;2023-09-18T05:22:43;8.30;;;5.33;;
2674;SDS011;1347;42.122;24.746;2023-09-18T05:25:10;9.93;;;5.47;;
2674;SDS011;1347;42.122;24.746;2023-09-18T05:27:39;8.93;;;5.53;;
2674;SDS011;1347;42.122;24.746;2023-09-18T05:30:10;8.00;;;6.00;;
2674;SDS011;1347;42.122;24.746;2023-09-18T05:32:40;6.50;;;5.20;;
2674;SDS011;1347;42.122;24.746;2023-09-18T05:35:08;7.50;;;5.97;;
2674;SDS011;1347;42.122;24.746;2023-09-18T05:37:39;16.00;;;5.80;;
2674;SDS011;1347;42.122;24.746;2023-09-18T05:40:07;10.33;;;5.87;;
2674;SDS011;1347;42.122;24.746;2023-09-18T05:42:35;8.43;;;5.63;;
2674;SDS011;1347;42.122;24.746;2023-09-18T05:45:02;8.80;;;4.80;;
2674;SDS011;1347;42.122;24.746;2023-09-18T05:47:30;8.33;;;4.60;;
2674;SDS011;1347;42.122;24.746;2023-09-18T05:49:58;18.07;;;6.10;;
2674;SDS011;1347;42.122;24.746;2023-09-18T05:52:25;10.37;;;5.30;;
2674;SDS011;1347;42.122;24.746;2023-09-18T05:54:53;5.77;;;4.37;;
2674;SDS011;1347;42.122;24.746;2023-09-18T05:57:20;6.00;;;4.33;;
2674;SDS011;1347;42.122;24.746;2023-09-18T05:59:47;6.83;;;3.80;;
2674;SDS011;1347;42.122;24.746;2023-09-18T06:02:14;4.90;;;3.63;;
2674;SDS011;1347;42.122;24.746;2023-09-18T06:04:42;4.53;;;3.80;;
2674;SDS011;1347;42.122;24.746;2023-09-18T06:07:09;4.63;;;3.73;;
2674;SDS011;1347;42.122;24.746;2023-09-18T06:09:38;8.90;;;4.53;;
2674;SDS011;1347;42.122;24.746;2023-09-18T06:12:06;6.37;;;3.80;;
2674;SDS011;1347;42.122;24.746;2023-09-18T06:14:34;7.93;;;4.47;;
2674;SDS011;1347;42.122;24.746;2023-09-18T06:17:03;8.90;;;4.80;;
2674;SDS011;1347;42.122;24.746;2023-09-18T06:19:31;5.63;;;5.07;;
2674;SDS011;1347;42.122;24.746;2023-09-18T06:21:58;5.97;;;4.33;;
2674;SDS011;1347;42.122;24.746;2023-09-18T06:24:25;7.20;;;4.93;;
2674;SDS011;1347;42.122;24.746;2023-09-18T06:26:52;5.67;;;4.40;;
2674;SDS011;1347;42.122;24.746;2023-09-18T06:29:20;9.33;;;4.73;;
2674;SDS011;1347;42.122;24.746;2023-09-18T06:31:47;6.13;;;3.73;;
2674;SDS011;1347;42.122;24.746;2023-09-18T06:34:16;7.07;;;4.60;;
2674;SDS011;1347;42.122;24.746;2023-09-18T06:36:43;5.40;;;3.70;;
2674;SDS011;1347;42.122;24.746;2023-09-18T06:39:10;6.40;;;4.50;;
2674;SDS011;1347;42.122;24.746;2023-09-18T06:41:37;5.27;;;4.40;;
2674;SDS011;1347;42.122;24.746;2023-09-18T06:44:04;5.87;;;3.97;;
2674;SDS011;1347;42.122;24.746;2023-09-18T06:46:33;8.13;;;4.67;;
2674;SDS011;1347;42.122;24.746;2023-09-18T06:49:00;8.73;;;5.00;;
2674;SDS011;1347;42.122;24.746;2023-09-18T06:51:28;7.00;;;5.80;;
2674;SDS011;1347;42.122;24.746;2023-09-18T06:53:56;7.97;;;4.20;;
2674;SDS011;1347;42.122;24.746;2023-09-18T06:56:23;6.33;;;4.40;;
2674;SDS011;1347;42.122;24.746;2023-09-18T06:58:50;4.80;;;3.77;;
2674;SDS011;1347;42.122;24.746;2023-09-18T07:01:17;8.70;;;3.90;;
2674;SDS011;1347;42.122;24.746;2023-09-18T07:03:46;6.73;;;4.07;;
2674;SDS011;1347;42.122;24.746;2023-09-18T07:06:13;5.67;;;4.10;;
2674;SDS011;1347;42.122;24.746;2023-09-18T07:08:41;4.83;;;3.20;;
2674;SDS011;1347;42.122;24.746;2023-09-18T07:11:09;7.77;;;3.93;;
2674;SDS011;1347;42.122;24.746;2023-09-18T07:13:34;15.03;;;6.97;;
2674;SDS011;1347;42.122;24.746;2023-09-18T07:16:01;6.03;;;5.40;;
2674;SDS011;1347;42.122;24.746;2023-09-18T07:18:29;8.93;;;3.90;;
2674;SDS011;1347;42.122;24.746;2023-09-18T07:20:57;7.37;;;5.47;;
2674;SDS011;1347;42.122;24.746;2023-09-18T07:23:24;10.73;;;6.80;;
2674;SDS011;1347;42.122;24.746;2023-09-18T07:25:51;5.93;;;4.50;;
2674;SDS011;1347;42.122;24.746;2023-09-18T07:28:18;6.37;;;4.33;;
2674;SDS011;1347;42.122;24.746;2023-09-18T07:30:45;5.63;;;4.47;;
2674;SDS011;1347;42.122;24.746;2023-09-18T07:33:12;5.20;;;4.20;;
2674;SDS011;1347;42.122;24.746;2023-09-18T07:35:45;3.87;;;3.57;;
2674;SDS011;1347;42.122;24.746;2023-09-18T07:38:14;3.93;;;3.63;;
2674;SDS011;1347;42.122;24.746;2023-09-18T07:40:41;4.60;;;4.20;;
2674;SDS011;1347;42.122;24.746;2023-09-18T07:43:08;4.03;;;3.70;;
2674;SDS011;1347;42.122;24.746;2023-09-18T07:45:37;6.43;;;4.60;;
2674;SDS011;1347;42.122;24.746;2023-09-18T07:48:04;7.83;;;4.60;;
2674;SDS011;1347;42.122;24.746;2023-09-18T07:50:32;6.17;;;4.30;;
2674;SDS011;1347;42.122;24.746;2023-09-18T07:52:59;5.33;;;4.13;;
2674;SDS011;1347;42.122;24.746;2023-09-18T07:55:27;5.17;;;4.43;;
2674;SDS011;1347;42.122;24.746;2023-09-18T07:57:55;5.27;;;4.80;;
2674;SDS011;1347;42.122;24.746;2023-09-18T08:00:23;4.40;;;4.00;;
2674;SDS011;1347;42.122;24.746;2023-09-18T08:02:51;5.47;;;4.67;;
2674;SDS011;1347;42.122;24.746;2023-09-18T08:05:23;5.17;;;4.40;;
2674;SDS011;1347;42.122;24.746;2023-09-18T08:07:53;7.23;;;4.90;;
2674;SDS011;1347;42.122;24.746;2023-09-18T08:10:22;5.90;;;4.70;;
2674;SDS011;1347;42.122;24.746;2023-09-18T08:12:50;4.97;;;4.47;;
2674;SDS011;1347;42.122;24.746;2023-09-18T08:15:18;5.63;;;4.67;;
2674;SDS011;1347;42.122;24.746;2023-09-18T08:17:45;10.13;;;5.27;;
2674;SDS011;1347;42.122;24.746;2023-09-18T08:20:14;5.90;;;5.13;;
2674;SDS011;1347;42.122;24.746;2023-09-18T08:22:41;8.60;;;6.97;;
2674;SDS011;1347;42.122;24.746;2023-09-18T08:25:09;6.10;;;5.07;;
2674;SDS011;1347;42.122;24.746;2023-09-18T08:27:37;4.70;;;4.20;;
2674;SDS011;1347;42.122;24.746;2023-09-18T08:30:08;5.50;;;4.30;;
2674;SDS011;1347;42.122;24.746;2023-09-18T08:32:36;6.20;;;5.60;;
2674;SDS011;1347;42.122;24.746;2023-09-18T08:35:03;7.30;;;4.43;;
2674;SDS011;1347;42.122;24.746;2023-09-18T08:37:31;4.17;;;3.87;;
2674;SDS011;1347;42.122;24.746;2023-09-18T08:39:58;5.67;;;4.80;;
2674;SDS011;1347;42.122;24.746;2023-09-18T08:42:26;5.00;;;4.47;;
2674;SDS011;1347;42.122;24.746;2023-09-18T08:44:57;4.67;;;4.00;;
2674;SDS011;1347;42.122;24.746;2023-09-18T08:47:27;4.97;;;3.43;;
2674;SDS011;1347;42.122;24.746;2023-09-18T08:49:54;4.53;;;3.47;;
2674;SDS011;1347;42.122;24.746;2023-09-18T08:52:22;7.00;;;3.70;;
2674;SDS011;1347;42.122;24.746;2023-09-18T08:54:50;4.70;;;4.13;;
2674;SDS011;1347;42.122;24.746;2023-09-18T08:57:18;4.47;;;4.07;;
2674;SDS011;1347;42.122;24.746;2023-09-18T08:59:45;4.30;;;3.43;;
2674;SDS011;1347;42.122;24.746;2023-09-18T09:02:14;4.30;;;3.90;;
2674;SDS011;1347;42.122;24.746;2023-09-18T09:04:43;4.83;;;4.20;;
2674;SDS011;1347;42.122;24.746;2023-09-18T09:07:09;6.07;;;4.20;;
2674;SDS011;1347;42.122;24.746;2023-09-18T09:09:36;8.80;;;4.20;;
2674;SDS011;1347;42.122;24.746;2023-09-18T09:12:04;5.47;;;3.70;;
2674;SDS011;1347;42.122;24.746;2023-09-18T09:14:31;4.03;;;3.63;;
2674;SDS011;1347;42.122;24.746;2023-09-18T09:16:58;5.50;;;4.13;;
2674;SDS011;1347;42.122;24.746;2023-09-18T09:19:29;8.20;;;4.03;;
2674;SDS011;1347;42.122;24.746;2023-09-18T09:21:58;6.80;;;3.83;;
2674;SDS011;1347;42.122;24.746;2023-09-18T09:24:36;7.47;;;4.60;;
2674;SDS011;1347;42.122;24.746;2023-09-18T09:27:03;6.73;;;4.70;;
2674;SDS011;1347;42.122;24.746;2023-09-18T09:29:30;3.73;;;3.43;;
2674;SDS011;1347;42.122;24.746;2023-09-18T09:32:00;4.30;;;4.00;;
2674;SDS011;1347;42.122;24.746;2023-09-18T09:34:40;4.77;;;4.37;;
2674;SDS011;1347;42.122;24.746;2023-09-18T09:37:09;6.00;;;4.27;;
2674;SDS011;1347;42.122;24.746;2023-09-18T09:39:45;4.70;;;4.30;;
2674;SDS011;1347;42.122;24.746;2023-09-18T09:42:15;6.50;;;4.73;;
2674;SDS011;1347;42.122;24.746;2023-09-18T09:44:54;4.97;;;3.73;;
2674;SDS011;1347;42.122;24.746;2023-09-18T09:47:31;3.60;;;3.33;;
2674;SDS011;1347;42.122;24.746;2023-09-18T09:49:59;9.10;;;5.40;;
2674;SDS011;1347;42.122;24.746;2023-09-18T09:52:36;7.10;;;3.83;;
2674;SDS011;1347;42.122;24.746;2023-09-18T09:55:17;5.50;;;4.23;;
2674;SDS011;1347;42.122;24.746;2023-09-18T09:57:49;4.30;;;3.90;;
2674;SDS011;1347;42.122;24.746;2023-09-18T10:00:17;4.60;;;4.20;;
2674;SDS011;1347;42.122;24.746;2023-09-18T10:02:58;9.50;;;4.10;;
2674;SDS011;1347;42.122;24.746;2023-09-18T10:05:29;4.77;;;3.70;;
2674;SDS011;1347;42.122;24.746;2023-09-18T10:08:01;5.20;;;4.33;;
2674;SDS011;1347;42.122;24.746;2023-09-18T10:10:33;4.47;;;4.17;;
2674;SDS011;1347;42.122;24.746;2023-09-18T10:13:05;5.80;;;4.37;;
2674;SDS011;1347;42.122;24.746;2023-09-18T10:15:36;7.90;;;4.90;;
2674;SDS011;1347;42.122;24.746;2023-09-18T10:18:10;4.63;;;4.23;;
2674;SDS011;1347;42.122;24.746;2023-09-18T10:20:43;4.63;;;4.23;;
2674;SDS011;1347;42.122;24.746;2023-09-18T10:23:18;4.10;;;3.80;;
2674;SDS011;1347;42.122;24.746;2023-09-18T10:26:04;4.43;;;4.00;;
2674;SDS011;1347;42.122;24.746;2023-09-18T10:28:33;4.97;;;4.57;;
2674;SDS011;1347;42.122;24.746;2023-09-18T10:31:01;4.33;;;3.93;;
2674;SDS011;1347;42.122;24.746;2023-09-18T10:33:31;4.27;;;3.87;;
2674;SDS011;1347;42.122;24.746;2023-09-18T10:35:59;9.37;;;4.70;;
2674;SDS011;1347;42.122;24.746;2023-09-18T10:38:30;8.00;;;4.20;;
2674;SDS011;1347;42.122;24.746;2023-09-18T10:40:58;4.40;;;4.00;;
2674;SDS011;1347;42.122;24.746;2023-09-18T10:43:26;10.30;;;4.57;;
2674;SDS011;1347;42.122;24.746;2023-09-18T10:45:53;4.00;;;3.60;;
2674;SDS011;1347;42.122;24.746;2023-09-18T10:48:21;5.43;;;4.50;;
2674;SDS011;1347;42.122;24.746;2023-09-18T10:50:50;7.00;;;4.53;;
2674;SDS011;1347;42.122;24.746;2023-09-18T10:53:18;6.00;;;4.70;;
2674;SDS011;1347;42.122;24.746;2023-09-18T10:55:48;6.70;;;5.53;;
2674;SDS011;1347;42.122;24.746;2023-09-18T10:58:22;7.13;;;6.43;;
2674;SDS011;1347;42.122;24.746;2023-09-18T11:00:50;6.40;;;5.50;;
2674;SDS011;1347;42.122;24.746;2023-09-18T11:03:18;5.70;;;4.60;;
2674;SDS011;1347;42.122;24.746;2023-09-18T11:05:45;4.47;;;4.10;;
2674;SDS011;1347;42.122;24.746;2023-09-18T11:08:25;4.87;;;4.37;;
2674;SDS011;1347;42.122;24.746;2023-09-18T11:11:02;5.00;;;4.50;;
2674;SDS011;1347;42.122;24.746;2023-09-18T11:13:35;5.23;;;4.50;;
2674;SDS011;1347;42.122;24.746;2023-09-18T11:16:14;8.60;;;4.17;;
2674;SDS011;1347;42.122;24.746;2023-09-18T11:18:45;5.70;;;3.83;;
2674;SDS011;1347;42.122;24.746;2023-09-18T11:21:14;4.60;;;4.10;;
2674;SDS011;1347;42.122;24.746;2023-09-18T11:23:43;4.07;;;3.50;;
2674;SDS011;1347;42.122;24.746;2023-09-18T11:26:12;4.63;;;3.67;;
2674;SDS011;1347;42.122;24.746;2023-09-18T11:28:41;4.43;;;3.53;;
2674;SDS011;1347;42.122;24.746;2023-09-18T11:31:09;5.43;;;4.27;;
2674;SDS011;1347;42.122;24.746;2023-09-18T11:33:37;3.73;;;3.30;;
2674;SDS011;1347;42.122;24.746;2023-09-18T11:36:08;5.37;;;4.30;;
2674;SDS011;1347;42.122;24.746;2023-09-18T11:38:52;4.00;;;3.70;;
2674;SDS011;1347;42.122;24.746;2023-09-18T11:41:23;3.87;;;3.47;;
2674;SDS011;1347;42.122;24.746;2023-09-18T11:43:51;6.87;;;3.87;;
2674;SDS011;1347;42.122;24.746;2023-09-18T11:46:19;5.00;;;3.80;;
2674;SDS011;1347;42.122;24.746;2023-09-18T11:48:47;4.17;;;3.77;;
2674;SDS011;1347;42.122;24.746;2023-09-18T11:51:22;5.13;;;3.77;;
2674;SDS011;1347;42.122;24.746;2023-09-18T11:53:51;4.23;;;3.93;;
2674;SDS011;1347;42.122;24.746;2023-09-18T11:56:22;6.10;;;4.00;;
2674;SDS011;1347;42.122;24.746;2023-09-18T11:58:50;5.93;;;3.93;;
2674;SDS011;1347;42.122;24.746;2023-09-18T12:01:20;4.63;;;4.23;;
2674;SDS011;1347;42.122;24.746;2023-09-18T12:03:52;6.23;;;4.10;;
2674;SDS011;1347;42.122;24.746;2023-09-18T12:06:19;10.63;;;4.10;;
2674;SDS011;1347;42.122;24.746;2023-09-18T12:08:48;5.07;;;3.83;;
2674;SDS011;1347;42.122;24.746;2023-09-18T12:11:17;9.87;;;4.73;;
2674;SDS011;1347;42.122;24.746;2023-09-18T12:13:46;6.77;;;3.80;;
2674;SDS011;1347;42.122;24.746;2023-09-18T12:16:13;3.60;;;3.30;;
2674;SDS011;1347;42.122;24.746;2023-09-18T12:18:44;3.60;;;3.30;;
2674;SDS011;1347;42.122;24.746;2023-09-18T12:21:13;4.47;;;4.00;;
2674;SDS011;1347;42.122;24.746;2023-09-18T12:23:42;4.20;;;3.70;;
2674;SDS011;1347;42.122;24.746;2023-09-18T12:26:10;3.80;;;3.40;;
2674;SDS011;1347;42.122;24.746;2023-09-18T12:28:39;4.60;;;3.73;;
2674;SDS011;1347;42.122;24.746;2023-09-18T12:31:11;5.80;;;4.67;;
2674;SDS011;1347;42.122;24.746;2023-09-18T12:33:39;4.80;;;4.07;;
2674;SDS011;1347;42.122;24.746;2023-09-18T12:36:09;6.87;;;4.27;;
2674;SDS011;1347;42.122;24.746;2023-09-18T12:38:39;4.10;;;3.70;;
2674;SDS011;1347;42.122;24.746;2023-09-18T12:41:06;5.67;;;3.77;;
2674;SDS011;1347;42.122;24.746;2023-09-18T12:43:35;4.60;;;3.90;;
2674;SDS011;1347;42.122;24.746;2023-09-18T12:46:04;4.30;;;4.00;;
2674;SDS011;1347;42.122;24.746;2023-09-18T12:48:33;5.20;;;4.33;;
2674;SDS011;1347;42.122;24.746;2023-09-18T12:51:03;4.43;;;4.03;;
2674;SDS011;1347;42.122;24.746;2023-09-18T12:53:29;7.77;;;3.83;;
2674;SDS011;1347;42.122;24.746;2023-09-18T12:56:04;5.33;;;4.17;;
2674;SDS011;1347;42.122;24.746;2023-09-18T12:58:32;5.60;;;3.77;;
2674;SDS011;1347;42.122;24.746;2023-09-18T13:01:03;5.50;;;4.10;;
2674;SDS011;1347;42.122;24.746;2023-09-18T13:03:34;5.60;;;4.20;;
2674;SDS011;1347;42.122;24.746;2023-09-18T13:06:08;6.80;;;4.63;;
2674;SDS011;1347;42.122;24.746;2023-09-18T13:08:36;4.83;;;3.93;;
2674;SDS011;1347;42.122;24.746;2023-09-18T13:11:03;4.23;;;3.83;;
2674;SDS011;1347;42.122;24.746;2023-09-18T13:13:31;5.30;;;4.00;;
2674;SDS011;1347;42.122;24.746;2023-09-18T13:15:59;4.40;;;4.00;;
2674;SDS011;1347;42.122;24.746;2023-09-18T13:18:29;6.90;;;4.60;;
2674;SDS011;1347;42.122;24.746;2023-09-18T13:20:57;4.63;;;3.50;;
2674;SDS011;1347;42.122;24.746;2023-09-18T13:23:28;5.97;;;3.83;;
2674;SDS011;1347;42.122;24.746;2023-09-18T13:25:58;7.00;;;4.13;;
2674;SDS011;1347;42.122;24.746;2023-09-18T13:28:26;5.83;;;3.80;;
2674;SDS011;1347;42.122;24.746;2023-09-18T13:30:56;5.80;;;4.20;;
2674;SDS011;1347;42.122;24.746;2023-09-18T13:33:23;3.90;;;3.60;;
2674;SDS011;1347;42.122;24.746;2023-09-18T13:35:51;3.70;;;3.40;;
2674;SDS011;1347;42.122;24.746;2023-09-18T13:38:22;5.60;;;3.60;;
2674;SDS011;1347;42.122;24.746;2023-09-18T13:40:49;3.67;;;3.37;;
2674;SDS011;1347;42.122;24.746;2023-09-18T13:43:16;15.53;;;4.60;;
2674;SDS011;1347;42.122;24.746;2023-09-18T13:45:47;4.70;;;3.67;;
2674;SDS011;1347;42.122;24.746;2023-09-18T13:48:16;3.80;;;3.43;;
2674;SDS011;1347;42.122;24.746;2023-09-18T13:50:43;6.20;;;4.17;;
2674;SDS011;1347;42.122;24.746;2023-09-18T13:53:11;3.63;;;3.33;;
2674;SDS011;1347;42.122;24.746;2023-09-18T13:55:40;5.27;;;4.03;;
2674;SDS011;1347;42.122;24.746;2023-09-18T13:58:07;4.37;;;3.67;;
2674;SDS011;1347;42.122;24.746;2023-09-18T14:00:34;3.93;;;3.53;;
2674;SDS011;1347;42.122;24.746;2023-09-18T14:03:02;8.67;;;3.73;;
2674;SDS011;1347;42.122;24.746;2023-09-18T14:05:29;3.70;;;3.33;;
2674;SDS011;1347;42.122;24.746;2023-09-18T14:07:58;5.53;;;3.70;;
2674;SDS011;1347;42.122;24.746;2023-09-18T14:10:26;7.90;;;6.30;;
2674;SDS011;1347;42.122;24.746;2023-09-18T14:12:54;5.23;;;3.83;;
2674;SDS011;1347;42.122;24.746;2023-09-18T14:15:22;3.80;;;3.07;;
2674;SDS011;1347;42.122;24.746;2023-09-18T14:17:49;4.80;;;3.57;;
2674;SDS011;1347;42.122;24.746;2023-09-18T14:20:16;5.60;;;3.43;;
2674;SDS011;1347;42.122;24.746;2023-09-18T14:22:44;4.87;;;4.23;;
2674;SDS011;1347;42.122;24.746;2023-09-18T14:25:14;7.57;;;4.00;;
2674;SDS011;1347;42.122;24.746;2023-09-18T14:27:41;5.30;;;4.07;;
2674;SDS011;1347;42.122;24.746;2023-09-18T14:30:11;10.00;;;4.13;;
2674;SDS011;1347;42.122;24.746;2023-09-18T14:32:38;7.23;;;4.33;;
2674;SDS011;1347;42.122;24.746;2023-09-18T14:35:06;4.83;;;4.33;;
2674;SDS011;1347;42.122;24.746;2023-09-18T14:37:34;4.40;;;3.97;;
2674;SDS011;1347;42.122;24.746;2023-09-18T14:40:01;5.27;;;3.90;;
2674;SDS011;1347;42.122;24.746;2023-09-18T14:42:29;5.10;;;4.57;;
2674;SDS011;1347;42.122;24.746;2023-09-18T14:44:56;3.97;;;3.57;;
2674;SDS011;1347;42.122;24.746;2023-09-18T14:47:24;7.53;;;3.87;;
2674;SDS011;1347;42.122;24.746;2023-09-18T14:49:51;4.53;;;4.13;;
2674;SDS011;1347;42.122;24.746;2023-09-18T14:52:18;6.60;;;3.90;;
2674;SDS011;1347;42.122;24.746;2023-09-18T14:54:48;5.30;;;4.10;;
2674;SDS011;1347;42.122;24.746;2023-09-18T14:57:15;5.30;;;4.03;;
2674;SDS011;1347;42.122;24.746;2023-09-18T14:59:42;5.73;;;4.60;;
2674;SDS011;1347;42.122;24.746;2023-09-18T15:02:12;8.23;;;4.83;;
2674;SDS011;1347;42.122;24.746;2023-09-18T15:04:42;4.70;;;4.30;;
2674;SDS011;1347;42.122;24.746;2023-09-18T15:07:09;8.07;;;4.67;;
2674;SDS011;1347;42.122;24.746;2023-09-18T15:09:36;11.30;;;4.77;;
2674;SDS011;1347;42.122;24.746;2023-09-18T15:12:04;7.37;;;4.77;;